sensor_id;sensor_type;location;lat;lon;timestamp;pressure;altitude;pressure_sealevel;temperature;humidity
6144;BME280;3103;49.492;8.474;2024-01-15T00:00:22;99555.50;;;-1.22;75.36
6144;BME280;3103;49.492;8.474;2024-01-15T00:02:49;99547.75;;;-0.87;74.53
6144;BME280;3103;49.492;8.474;2024-01-15T00:05:16;99552.06;;;-0.65;73.59
6144;BME280;3103;49.492;8.474;2024-01-15T00:07:42;99552.69;;;-0.84;74.35
6144;BME280;3103;49.492;8.474;2024-01-15T00:10:09;99541.44;;;-0.71;74.59
6144;BME280;3103;49.492;8.474;2024-01-15T00:12:36;99543.94;;;-0.63;73.71
6144;BME280;3103;49.492;8.474;2024-01-15T00:15:04;99547.97;;;-0.67;73.93
6144;BME280;3103;49.492;8.474;2024-01-15T00:17:31;99539.13;;;-0.81;74.48
6144;BME280;3103;49.492;8.474;2024-01-15T00:19:58;99539.88;;;-0.66;74.38
6144;BME280;3103;49.492;8.474;2024-01-15T00:22:25;99534.72;;;-0.74;73.63
6144;BME280;3103;49.492;8.474;2024-01-15T00:24:53;99538.56;;;-0.55;73.22
6144;BME280;3103;49.492;8.474;2024-01-15T00:27:21;99534.97;;;-0.69;73.16
6144;BME280;3103;49.492;8.474;2024-01-15T00:29:48;99536.97;;;-0.71;74.22
6144;BME280;3103;49.492;8.474;2024-01-15T00:32:14;99521.66;;;-0.61;74.32
6144;BME280;3103;49.492;8.474;2024-01-15T00:34:41;99531.88;;;-0.51;73.95
6144;BME280;3103;49.492;8.474;2024-01-15T00:37:09;99528.06;;;-0.70;74.14
6144;BME280;3103;49.492;8.474;2024-01-15T00:39:36;99511.13;;;-0.82;74.06
6144;BME280;3103;49.492;8.474;2024-01-15T00:42:03;99514.50;;;-0.67;74.16
6144;BME280;3103;49.492;8.474;2024-01-15T00:44:30;99521.91;;;-0.55;73.85
6144;BME280;3103;49.492;8.474;2024-01-15T00:46:58;99514.47;;;-0.45;73.74
6144;BME280;3103;49.492;8.474;2024-01-15T00:49:26;99514.94;;;-0.63;74.21
6144;BME280;3103;49.492;8.474;2024-01-15T00:51:54;99505.19;;;-0.63;74.44
6144;BME280;3103;49.492;8.474;2024-01-15T00:54:20;99495.84;;;-0.65;74.19
6144;BME280;3103;49.492;8.474;2024-01-15T00:56:47;99499.28;;;-0.65;74.73
6144;BME280;3103;49.492;8.474;2024-01-15T00:59:14;99505.72;;;-0.46;74.11
6144;BME280;3103;49.492;8.474;2024-01-15T01:01:42;99501.84;;;-0.50;74.08
6144;BME280;3103;49.492;8.474;2024-01-15T01:04:10;99502.25;;;-0.74;74.43
6144;BME280;3103;49.492;8.474;2024-01-15T01:06:38;99497.28;;;-0.63;74.16
6144;BME280;3103;49.492;8.474;2024-01-15T01:09:05;99497.50;;;-0.57;74.37
6144;BME280;3103;49.492;8.474;2024-01-15T01:11:32;99501.66;;;-0.48;73.88
6144;BME280;3103;49.492;8.474;2024-01-15T01:13:59;99498.28;;;-0.42;73.71
6144;BME280;3103;49.492;8.474;2024-01-15T01:16:27;99497.88;;;-0.39;74.14
6144;BME280;3103;49.492;8.474;2024-01-15T01:18:54;99489.50;;;-0.43;73.46
6144;BME280;3103;49.492;8.474;2024-01-15T01:21:21;99490.44;;;-0.29;73.64
6144;BME280;3103;49.492;8.474;2024-01-15T01:23:49;99486.13;;;-0.37;72.81
6144;BME280;3103;49.492;8.474;2024-01-15T01:26:17;99494.06;;;-0.58;73.56
6144;BME280;3103;49.492;8.474;2024-01-15T01:28:44;99498.41;;;-0.72;74.41
6144;BME280;3103;49.492;8.474;2024-01-15T01:31:11;99495.66;;;-0.64;74.42
6144;BME280;3103;49.492;8.474;2024-01-15T01:33:39;99504.31;;;-0.48;73.57
6144;BME280;3103;49.492;8.474;2024-01-15T01:36:08;99505.31;;;-0.49;73.88
6144;BME280;3103;49.492;8.474;2024-01-15T01:38:36;99497.88;;;-0.39;73.60
6144;BME280;3103;49.492;8.474;2024-01-15T01:41:04;99501.03;;;-0.50;73.75
6144;BME280;3103;49.492;8.474;2024-01-15T01:43:31;99493.63;;;-0.62;74.10
6144;BME280;3103;49.492;8.474;2024-01-15T01:45:58;99502.06;;;-0.51;74.02
6144;BME280;3103;49.492;8.474;2024-01-15T01:48:27;99497.72;;;-0.59;73.91
6144;BME280;3103;49.492;8.474;2024-01-15T01:50:57;99496.63;;;-0.43;74.07
6144;BME280;3103;49.492;8.474;2024-01-15T01:53:28;99487.75;;;-0.36;73.94
6144;BME280;3103;49.492;8.474;2024-01-15T01:55:57;99492.94;;;-0.21;73.57
6144;BME280;3103;49.492;8.474;2024-01-15T01:58:24;99478.81;;;-0.07;72.92
6144;BME280;3103;49.492;8.474;2024-01-15T02:00:53;99489.78;;;-0.03;73.86
6144;BME280;3103;49.492;8.474;2024-01-15T02:03:20;99486.41;;;0.10;71.71
6144;BME280;3103;49.492;8.474;2024-01-15T02:05:48;99486.59;;;0.02;72.51
6144;BME280;3103;49.492;8.474;2024-01-15T02:08:16;99487.97;;;-0.03;72.13
6144;BME280;3103;49.492;8.474;2024-01-15T02:10:43;99473.88;;;-0.16;72.33
6144;BME280;3103;49.492;8.474;2024-01-15T02:13:10;99483.69;;;-0.38;73.34
6144;BME280;3103;49.492;8.474;2024-01-15T02:15:37;99482.66;;;-0.37;73.06
6144;BME280;3103;49.492;8.474;2024-01-15T02:18:05;99491.69;;;-0.25;73.69
6144;BME280;3103;49.492;8.474;2024-01-15T02:20:35;99480.03;;;-0.37;73.61
6144;BME280;3103;49.492;8.474;2024-01-15T02:23:07;99475.88;;;-0.18;73.13
6144;BME280;3103;49.492;8.474;2024-01-15T02:25:41;99483.00;;;-0.19;73.14
6144;BME280;3103;49.492;8.474;2024-01-15T02:28:10;99470.69;;;-0.05;72.71
6144;BME280;3103;49.492;8.474;2024-01-15T02:30:37;99458.34;;;-0.33;73.18
6144;BME280;3103;49.492;8.474;2024-01-15T02:33:09;99456.66;;;-0.12;73.48
6144;BME280;3103;49.492;8.474;2024-01-15T02:35:36;99448.53;;;-0.11;73.52
6144;BME280;3103;49.492;8.474;2024-01-15T02:38:04;99451.59;;;-0.07;73.69
6144;BME280;3103;49.492;8.474;2024-01-15T02:40:32;99448.13;;;-0.08;73.74
6144;BME280;3103;49.492;8.474;2024-01-15T02:42:59;99436.50;;;0.28;73.38
6144;BME280;3103;49.492;8.474;2024-01-15T02:45:26;99437.63;;;0.47;74.15
6144;BME280;3103;49.492;8.474;2024-01-15T02:47:53;99465.28;;;0.51;73.30
6144;BME280;3103;49.492;8.474;2024-01-15T02:50:20;99487.53;;;0.76;71.40
6144;BME280;3103;49.492;8.474;2024-01-15T02:52:47;99487.13;;;0.73;70.19
6144;BME280;3103;49.492;8.474;2024-01-15T02:55:15;99484.69;;;0.78;69.92
6144;BME280;3103;49.492;8.474;2024-01-15T02:57:41;99471.88;;;0.75;69.74
6144;BME280;3103;49.492;8.474;2024-01-15T03:00:09;99467.50;;;0.47;71.07
6144;BME280;3103;49.492;8.474;2024-01-15T03:02:37;99464.25;;;0.45;70.49
6144;BME280;3103;49.492;8.474;2024-01-15T03:05:14;99469.88;;;0.29;71.89
6144;BME280;3103;49.492;8.474;2024-01-15T03:07:42;99463.25;;;0.05;72.02
6144;BME280;3103;49.492;8.474;2024-01-15T03:10:09;99462.78;;;-0.05;72.71
6144;BME280;3103;49.492;8.474;2024-01-15T03:12:36;99471.69;;;-0.13;73.15
6144;BME280;3103;49.492;8.474;2024-01-15T03:15:04;99467.72;;;0.05;72.93
6144;BME280;3103;49.492;8.474;2024-01-15T03:17:31;99461.69;;;0.17;73.83
6144;BME280;3103;49.492;8.474;2024-01-15T03:19:58;99472.47;;;0.22;73.18
6144;BME280;3103;49.492;8.474;2024-01-15T03:22:25;99468.72;;;0.45;71.97
6144;BME280;3103;49.492;8.474;2024-01-15T03:24:52;99457.38;;;0.10;72.50
6144;BME280;3103;49.492;8.474;2024-01-15T03:27:19;99462.44;;;0.05;72.18
6144;BME280;3103;49.492;8.474;2024-01-15T03:29:46;99454.31;;;0.06;72.82
6144;BME280;3103;49.492;8.474;2024-01-15T03:32:13;99457.84;;;0.20;72.43
6144;BME280;3103;49.492;8.474;2024-01-15T03:34:42;99467.81;;;0.24;72.20
6144;BME280;3103;49.492;8.474;2024-01-15T03:37:09;99464.59;;;-0.06;72.82
6144;BME280;3103;49.492;8.474;2024-01-15T03:39:36;99459.09;;;-0.11;73.39
6144;BME280;3103;49.492;8.474;2024-01-15T03:42:04;99459.13;;;-0.04;73.48
6144;BME280;3103;49.492;8.474;2024-01-15T03:44:31;99460.72;;;-0.10;73.45
6144;BME280;3103;49.492;8.474;2024-01-15T03:46:58;99456.91;;;-0.01;73.24
6144;BME280;3103;49.492;8.474;2024-01-15T03:49:25;99442.19;;;-0.16;74.25
6144;BME280;3103;49.492;8.474;2024-01-15T03:51:52;99452.81;;;-0.10;73.75
6144;BME280;3103;49.492;8.474;2024-01-15T03:54:19;99458.47;;;-0.13;73.84
6144;BME280;3103;49.492;8.474;2024-01-15T03:56:47;99460.94;;;-0.05;73.82
6144;BME280;3103;49.492;8.474;2024-01-15T03:59:14;99451.59;;;-0.07;74.03
6144;BME280;3103;49.492;8.474;2024-01-15T04:01:40;99454.38;;;0.19;73.75
6144;BME280;3103;49.492;8.474;2024-01-15T04:04:08;99442.09;;;0.46;72.78
6144;BME280;3103;49.492;8.474;2024-01-15T04:06:35;99439.66;;;0.51;72.34
6144;BME280;3103;49.492;8.474;2024-01-15T04:09:02;99434.47;;;0.17;73.13
6144;BME280;3103;49.492;8.474;2024-01-15T04:11:29;99422.13;;;0.37;72.85
6144;BME280;3103;49.492;8.474;2024-01-15T04:13:56;99418.75;;;0.56;72.67
6144;BME280;3103;49.492;8.474;2024-01-15T04:16:23;99430.47;;;0.34;72.41
6144;BME280;3103;49.492;8.474;2024-01-15T04:18:50;99411.75;;;0.29;72.78
6144;BME280;3103;49.492;8.474;2024-01-15T04:21:17;99427.97;;;0.26;73.06
6144;BME280;3103;49.492;8.474;2024-01-15T04:23:45;99412.72;;;0.15;73.03
6144;BME280;3103;49.492;8.474;2024-01-15T04:26:12;99414.59;;;-0.14;74.21
6144;BME280;3103;49.492;8.474;2024-01-15T04:28:39;99413.66;;;0.01;74.54
6144;BME280;3103;49.492;8.474;2024-01-15T04:31:05;99403.31;;;0.12;74.38
6144;BME280;3103;49.492;8.474;2024-01-15T04:33:33;99405.34;;;0.10;74.63
6144;BME280;3103;49.492;8.474;2024-01-15T04:36:04;99407.63;;;0.20;73.97
6144;BME280;3103;49.492;8.474;2024-01-15T04:38:32;99389.41;;;0.38;72.58
6144;BME280;3103;49.492;8.474;2024-01-15T04:40:59;99396.72;;;0.36;73.52
6144;BME280;3103;49.492;8.474;2024-01-15T04:43:26;99385.13;;;0.37;74.34
6144;BME280;3103;49.492;8.474;2024-01-15T04:45:53;99392.53;;;0.62;73.25
6144;BME280;3103;49.492;8.474;2024-01-15T04:48:20;99398.03;;;0.80;73.78
6144;BME280;3103;49.492;8.474;2024-01-15T04:50:49;99386.03;;;0.77;73.76
6144;BME280;3103;49.492;8.474;2024-01-15T04:53:17;99395.75;;;0.50;73.37
6144;BME280;3103;49.492;8.474;2024-01-15T04:55:43;99396.44;;;0.85;73.29
6144;BME280;3103;49.492;8.474;2024-01-15T04:58:10;99396.00;;;0.82;72.78
6144;BME280;3103;49.492;8.474;2024-01-15T05:00:37;99387.41;;;0.53;72.90
6144;BME280;3103;49.492;8.474;2024-01-15T05:03:04;99389.81;;;0.42;73.06
6144;BME280;3103;49.492;8.474;2024-01-15T05:05:32;99391.69;;;0.54;73.73
6144;BME280;3103;49.492;8.474;2024-01-15T05:07:59;99392.97;;;0.72;73.62
6144;BME280;3103;49.492;8.474;2024-01-15T05:10:27;99393.75;;;0.59;73.14
6144;BME280;3103;49.492;8.474;2024-01-15T05:12:53;99389.50;;;0.71;73.37
6144;BME280;3103;49.492;8.474;2024-01-15T05:15:20;99381.09;;;0.54;73.74
6144;BME280;3103;49.492;8.474;2024-01-15T05:17:47;99357.13;;;0.49;73.38
6144;BME280;3103;49.492;8.474;2024-01-15T05:20:14;99371.91;;;0.37;73.66
6144;BME280;3103;49.492;8.474;2024-01-15T05:22:41;99357.31;;;0.48;73.70
6144;BME280;3103;49.492;8.474;2024-01-15T05:25:08;99358.97;;;0.69;73.50
6144;BME280;3103;49.492;8.474;2024-01-15T05:27:35;99359.75;;;0.43;73.97
6144;BME280;3103;49.492;8.474;2024-01-15T05:30:02;99358.75;;;0.50;75.35
6144;BME280;3103;49.492;8.474;2024-01-15T05:32:30;99363.47;;;0.81;75.21
6144;BME280;3103;49.492;8.474;2024-01-15T05:34:56;99351.81;;;0.56;74.19
6144;BME280;3103;49.492;8.474;2024-01-15T05:37:23;99351.25;;;0.74;74.92
6144;BME280;3103;49.492;8.474;2024-01-15T05:39:50;99357.09;;;0.36;74.93
6144;BME280;3103;49.492;8.474;2024-01-15T05:42:17;99353.28;;;0.65;74.33
6144;BME280;3103;49.492;8.474;2024-01-15T05:44:44;99352.47;;;0.65;74.48
6144;BME280;3103;49.492;8.474;2024-01-15T05:47:11;99352.06;;;0.81;74.54
6144;BME280;3103;49.492;8.474;2024-01-15T05:49:37;99355.53;;;0.81;73.33
6144;BME280;3103;49.492;8.474;2024-01-15T05:52:05;99352.47;;;0.58;74.26
6144;BME280;3103;49.492;8.474;2024-01-15T05:54:32;99355.72;;;0.67;73.84
6144;BME280;3103;49.492;8.474;2024-01-15T05:56:59;99354.28;;;0.64;74.31
6144;BME280;3103;49.492;8.474;2024-01-15T05:59:26;99362.22;;;0.84;75.67
6144;BME280;3103;49.492;8.474;2024-01-15T06:01:53;99360.25;;;0.99;75.71
6144;BME280;3103;49.492;8.474;2024-01-15T06:04:20;99362.25;;;1.04;75.44
6144;BME280;3103;49.492;8.474;2024-01-15T06:06:47;99354.13;;;0.99;74.12
6144;BME280;3103;49.492;8.474;2024-01-15T06:09:14;99355.75;;;1.06;73.21
6144;BME280;3103;49.492;8.474;2024-01-15T06:11:41;99361.66;;;1.15;74.28
6144;BME280;3103;49.492;8.474;2024-01-15T06:14:08;99354.72;;;1.21;74.63
6144;BME280;3103;49.492;8.474;2024-01-15T06:16:35;99355.75;;;1.06;74.58
6144;BME280;3103;49.492;8.474;2024-01-15T06:19:02;99359.00;;;1.02;74.10
6144;BME280;3103;49.492;8.474;2024-01-15T06:21:29;99359.59;;;0.97;73.45
6144;BME280;3103;49.492;8.474;2024-01-15T06:23:56;99352.06;;;1.07;72.57
6144;BME280;3103;49.492;8.474;2024-01-15T06:26:23;99346.38;;;0.97;73.23
6144;BME280;3103;49.492;8.474;2024-01-15T06:28:50;99356.56;;;1.13;72.57
6144;BME280;3103;49.492;8.474;2024-01-15T06:31:17;99357.78;;;0.91;72.78
6144;BME280;3103;49.492;8.474;2024-01-15T06:33:44;99355.34;;;1.03;72.94
6144;BME280;3103;49.492;8.474;2024-01-15T06:36:14;99354.31;;;0.84;73.53
6144;BME280;3103;49.492;8.474;2024-01-15T06:38:43;99358.59;;;0.98;73.41
6144;BME280;3103;49.492;8.474;2024-01-15T06:41:10;99362.88;;;0.93;73.25
6144;BME280;3103;49.492;8.474;2024-01-15T06:43:37;99360.00;;;1.07;73.82
6144;BME280;3103;49.492;8.474;2024-01-15T06:46:04;99357.78;;;1.04;73.72
6144;BME280;3103;49.492;8.474;2024-01-15T06:48:34;99365.53;;;0.86;74.96
6144;BME280;3103;49.492;8.474;2024-01-15T06:51:01;99352.06;;;0.74;75.54
6144;BME280;3103;49.492;8.474;2024-01-15T06:53:28;99362.66;;;0.81;75.15
6144;BME280;3103;49.492;8.474;2024-01-15T06:55:55;99360.22;;;0.73;75.88
6144;BME280;3103;49.492;8.474;2024-01-15T06:58:22;99365.09;;;0.89;75.16
6144;BME280;3103;49.492;8.474;2024-01-15T07:00:49;99356.97;;;0.91;75.05
6144;BME280;3103;49.492;8.474;2024-01-15T07:03:16;99353.13;;;1.00;74.68
6144;BME280;3103;49.492;8.474;2024-01-15T07:05:43;99352.31;;;0.99;75.15
6144;BME280;3103;49.492;8.474;2024-01-15T07:08:10;99341.50;;;1.01;74.43
6144;BME280;3103;49.492;8.474;2024-01-15T07:10:37;99343.72;;;0.84;75.56
6144;BME280;3103;49.492;8.474;2024-01-15T07:13:04;99348.63;;;0.80;76.25
6144;BME280;3103;49.492;8.474;2024-01-15T07:15:32;99354.13;;;0.92;75.28
6144;BME280;3103;49.492;8.474;2024-01-15T07:17:59;99343.75;;;0.91;75.71
6144;BME280;3103;49.492;8.474;2024-01-15T07:20:26;99348.22;;;0.97;74.96
6144;BME280;3103;49.492;8.474;2024-01-15T07:22:53;99344.94;;;0.81;75.58
6144;BME280;3103;49.492;8.474;2024-01-15T07:25:20;99347.81;;;1.06;75.57
6144;BME280;3103;49.492;8.474;2024-01-15T07:27:48;99349.22;;;1.22;75.61
6144;BME280;3103;49.492;8.474;2024-01-15T07:30:15;99361.25;;;0.92;74.98
6144;BME280;3103;49.492;8.474;2024-01-15T07:32:42;99349.63;;;1.06;73.87
6144;BME280;3103;49.492;8.474;2024-01-15T07:35:09;99351.66;;;0.84;74.91
6144;BME280;3103;49.492;8.474;2024-01-15T07:37:37;99353.06;;;0.53;76.85
6144;BME280;3103;49.492;8.474;2024-01-15T07:40:04;99336.63;;;0.78;76.33
6144;BME280;3103;49.492;8.474;2024-01-15T07:42:32;99341.91;;;0.91;76.13
6144;BME280;3103;49.492;8.474;2024-01-15T07:45:00;99346.19;;;0.99;76.53
6144;BME280;3103;49.492;8.474;2024-01-15T07:47:30;99347.19;;;1.11;75.77
6144;BME280;3103;49.492;8.474;2024-01-15T07:49:57;99348.22;;;1.30;75.62
6144;BME280;3103;49.492;8.474;2024-01-15T07:52:31;99337.41;;;1.31;75.19
6144;BME280;3103;49.492;8.474;2024-01-15T07:54:58;99338.84;;;1.27;75.21
6144;BME280;3103;49.492;8.474;2024-01-15T07:57:30;99334.56;;;1.19;74.83
6144;BME280;3103;49.492;8.474;2024-01-15T07:59:57;99340.63;;;1.46;75.10
6144;BME280;3103;49.492;8.474;2024-01-15T08:02:24;99329.28;;;1.19;74.75
6144;BME280;3103;49.492;8.474;2024-01-15T08:04:51;99338.41;;;1.37;75.47
6144;BME280;3103;49.492;8.474;2024-01-15T08:07:18;99339.81;;;1.46;73.82
6144;BME280;3103;49.492;8.474;2024-01-15T08:09:45;99332.31;;;1.30;74.86
6144;BME280;3103;49.492;8.474;2024-01-15T08:12:14;99334.13;;;1.42;75.52
6144;BME280;3103;49.492;8.474;2024-01-15T08:14:41;99328.59;;;1.57;74.15
6144;BME280;3103;49.492;8.474;2024-01-15T08:17:08;99336.97;;;1.47;74.98
6144;BME280;3103;49.492;8.474;2024-01-15T08:19:35;99339.59;;;1.54;75.23
6144;BME280;3103;49.492;8.474;2024-01-15T08:22:03;99328.81;;;1.49;76.01
6144;BME280;3103;49.492;8.474;2024-01-15T08:24:30;99324.50;;;1.61;75.71
6144;BME280;3103;49.492;8.474;2024-01-15T08:26:58;99323.47;;;1.69;76.04
6144;BME280;3103;49.492;8.474;2024-01-15T08:29:25;99329.38;;;1.64;75.26
6144;BME280;3103;49.492;8.474;2024-01-15T08:31:52;99320.81;;;1.69;74.71
6144;BME280;3103;49.492;8.474;2024-01-15T08:34:19;99323.75;;;1.47;75.48
6144;BME280;3103;49.492;8.474;2024-01-15T08:36:46;99318.78;;;1.64;75.79
6144;BME280;3103;49.492;8.474;2024-01-15T08:39:13;99321.91;;;1.48;75.03
6144;BME280;3103;49.492;8.474;2024-01-15T08:41:40;99322.06;;;1.60;75.74
6144;BME280;3103;49.492;8.474;2024-01-15T08:44:07;99332.09;;;1.38;76.17
6144;BME280;3103;49.492;8.474;2024-01-15T08:46:34;99322.91;;;1.54;76.13
6144;BME280;3103;49.492;8.474;2024-01-15T08:49:01;99322.97;;;1.27;76.05
6144;BME280;3103;49.492;8.474;2024-01-15T08:51:30;99330.06;;;1.40;76.38
6144;BME280;3103;49.492;8.474;2024-01-15T08:53:57;99337.78;;;1.48;75.71
6144;BME280;3103;49.492;8.474;2024-01-15T08:56:24;99324.94;;;1.52;75.80
6144;BME280;3103;49.492;8.474;2024-01-15T08:58:51;99332.47;;;1.61;75.50
6144;BME280;3103;49.492;8.474;2024-01-15T09:01:18;99334.94;;;1.56;75.17
6144;BME280;3103;49.492;8.474;2024-01-15T09:03:45;99334.13;;;1.42;75.32
6144;BME280;3103;49.492;8.474;2024-01-15T09:06:13;99333.94;;;1.44;75.78
6144;BME280;3103;49.492;8.474;2024-01-15T09:08:44;99335.34;;;1.40;75.90
6144;BME280;3103;49.492;8.474;2024-01-15T09:11:11;99331.28;;;1.44;75.97
6144;BME280;3103;49.492;8.474;2024-01-15T09:13:38;99329.25;;;1.33;76.18
6144;BME280;3103;49.492;8.474;2024-01-15T09:16:06;99313.22;;;1.14;77.12
6144;BME280;3103;49.492;8.474;2024-01-15T09:18:35;99316.81;;;1.40;76.52
6144;BME280;3103;49.492;8.474;2024-01-15T09:21:03;99313.59;;;1.31;76.18
6144;BME280;3103;49.492;8.474;2024-01-15T09:23:30;99304.44;;;1.27;76.25
6144;BME280;3103;49.492;8.474;2024-01-15T09:25:56;99313.44;;;1.13;77.47
6144;BME280;3103;49.492;8.474;2024-01-15T09:28:23;99317.47;;;1.22;77.58
6144;BME280;3103;49.492;8.474;2024-01-15T09:30:50;99313.59;;;1.31;78.08
6144;BME280;3103;49.492;8.474;2024-01-15T09:33:17;99312.50;;;1.59;77.08
6144;BME280;3103;49.492;8.474;2024-01-15T09:35:44;99310.09;;;1.44;78.04
6144;BME280;3103;49.492;8.474;2024-01-15T09:38:12;99310.06;;;1.57;77.49
6144;BME280;3103;49.492;8.474;2024-01-15T09:40:43;99309.69;;;1.47;77.64
6144;BME280;3103;49.492;8.474;2024-01-15T09:43:12;99300.50;;;1.56;77.66
6144;BME280;3103;49.492;8.474;2024-01-15T09:45:40;99294.22;;;1.44;78.75
6144;BME280;3103;49.492;8.474;2024-01-15T09:48:08;99289.53;;;1.39;79.05
6144;BME280;3103;49.492;8.474;2024-01-15T09:50:35;99294.16;;;1.64;78.67
6144;BME280;3103;49.492;8.474;2024-01-15T09:53:02;99298.59;;;1.83;78.50
6144;BME280;3103;49.492;8.474;2024-01-15T09:55:32;99296.84;;;1.57;79.08
6144;BME280;3103;49.492;8.474;2024-01-15T09:58:00;99299.84;;;1.67;79.21
6144;BME280;3103;49.492;8.474;2024-01-15T10:00:28;99281.81;;;1.38;80.48
6144;BME280;3103;49.492;8.474;2024-01-15T10:02:56;99284.28;;;1.33;82.03
6144;BME280;3103;49.492;8.474;2024-01-15T10:05:23;99285.06;;;1.46;81.95
6144;BME280;3103;49.492;8.474;2024-01-15T10:07:51;99274.59;;;1.65;81.53
6144;BME280;3103;49.492;8.474;2024-01-15T10:10:20;99277.72;;;1.55;81.89
6144;BME280;3103;49.492;8.474;2024-01-15T10:12:49;99283.41;;;1.52;82.92
6144;BME280;3103;49.492;8.474;2024-01-15T10:15:16;99281.13;;;1.62;82.34
6144;BME280;3103;49.492;8.474;2024-01-15T10:17:44;99299.88;;;1.54;82.81
6144;BME280;3103;49.492;8.474;2024-01-15T10:20:12;99309.50;;;1.35;83.99
6144;BME280;3103;49.492;8.474;2024-01-15T10:22:42;99300.75;;;1.41;84.25
6144;BME280;3103;49.492;8.474;2024-01-15T10:25:11;99296.91;;;1.31;84.64
6144;BME280;3103;49.492;8.474;2024-01-15T10:27:38;99298.72;;;1.37;84.57
6144;BME280;3103;49.492;8.474;2024-01-15T10:30:08;99295.91;;;1.18;85.80
6144;BME280;3103;49.492;8.474;2024-01-15T10:32:36;99290.19;;;1.28;85.37
6144;BME280;3103;49.492;8.474;2024-01-15T10:35:03;99299.88;;;1.54;84.22
6144;BME280;3103;49.492;8.474;2024-01-15T10:37:33;99293.16;;;1.52;84.03
6144;BME280;3103;49.492;8.474;2024-01-15T10:40:04;99280.16;;;1.50;84.40
6144;BME280;3103;49.492;8.474;2024-01-15T10:42:32;99274.03;;;1.56;83.99
6144;BME280;3103;49.492;8.474;2024-01-15T10:44:59;99276.94;;;1.41;84.35
6144;BME280;3103;49.492;8.474;2024-01-15T10:47:26;99264.25;;;1.50;84.35
6144;BME280;3103;49.492;8.474;2024-01-15T10:49:53;99265.31;;;1.42;84.34
6144;BME280;3103;49.492;8.474;2024-01-15T10:52:24;99268.78;;;1.36;84.33
6144;BME280;3103;49.492;8.474;2024-01-15T10:54:52;99267.50;;;1.52;84.39
6144;BME280;3103;49.492;8.474;2024-01-15T10:57:21;99255.16;;;1.33;83.58
6144;BME280;3103;49.492;8.474;2024-01-15T10:59:49;99262.47;;;1.44;83.61
6144;BME280;3103;49.492;8.474;2024-01-15T11:02:16;99267.75;;;1.44;83.79
6144;BME280;3103;49.492;8.474;2024-01-15T11:04:43;99260.75;;;1.63;83.36
6144;BME280;3103;49.492;8.474;2024-01-15T11:07:10;99253.78;;;1.68;82.68
6144;BME280;3103;49.492;8.474;2024-01-15T11:09:39;99242.41;;;1.68;82.61
6144;BME280;3103;49.492;8.474;2024-01-15T11:12:07;99245.09;;;1.61;83.07
6144;BME280;3103;49.492;8.474;2024-01-15T11:14:47;99241.41;;;1.62;83.51
6144;BME280;3103;49.492;8.474;2024-01-15T11:17:16;99244.22;;;1.67;83.84
6144;BME280;3103;49.492;8.474;2024-01-15T11:19:48;99261.34;;;1.65;83.98
6144;BME280;3103;49.492;8.474;2024-01-15T11:24:56;99261.06;;;1.41;85.68
6144;BME280;3103;49.492;8.474;2024-01-15T11:27:45;99266.38;;;1.28;87.67
6144;BME280;3103;49.492;8.474;2024-01-15T11:30:14;99260.41;;;1.46;86.92
6144;BME280;3103;49.492;8.474;2024-01-15T11:32:41;99270.19;;;1.45;86.76
6144;BME280;3103;49.492;8.474;2024-01-15T11:35:10;99251.56;;;1.65;86.80
6144;BME280;3103;49.492;8.474;2024-01-15T11:38:06;99256.88;;;1.65;85.88
6144;BME280;3103;49.492;8.474;2024-01-15T11:43:02;99269.09;;;1.66;85.63
6144;BME280;3103;49.492;8.474;2024-01-15T11:45:30;99251.88;;;1.44;86.13
6144;BME280;3103;49.492;8.474;2024-01-15T11:48:14;99253.44;;;1.58;86.50
6144;BME280;3103;49.492;8.474;2024-01-15T11:50:44;99258.31;;;1.61;85.59
6144;BME280;3103;49.492;8.474;2024-01-15T11:53:27;99264.88;;;1.52;84.40
6144;BME280;3103;49.492;8.474;2024-01-15T11:56:01;99257.72;;;1.53;84.45
6144;BME280;3103;49.492;8.474;2024-01-15T11:58:30;99246.88;;;1.67;83.01
6144;BME280;3103;49.492;8.474;2024-01-15T12:00:57;99250.38;;;1.61;82.89
6144;BME280;3103;49.492;8.474;2024-01-15T12:03:25;99259.13;;;1.62;82.70
6144;BME280;3103;49.492;8.474;2024-01-15T12:05:52;99257.34;;;1.94;81.61
6144;BME280;3103;49.492;8.474;2024-01-15T12:08:23;99263.44;;;2.01;81.14
6144;BME280;3103;49.492;8.474;2024-01-15T12:10:51;99252.41;;;2.04;80.51
6144;BME280;3103;49.492;8.474;2024-01-15T12:13:19;99255.28;;;2.02;80.31
6144;BME280;3103;49.492;8.474;2024-01-15T12:15:47;99250.16;;;1.69;80.98
6144;BME280;3103;49.492;8.474;2024-01-15T12:18:18;99258.53;;;2.04;80.07
6144;BME280;3103;49.492;8.474;2024-01-15T12:20:46;99253.72;;;1.88;79.61
6144;BME280;3103;49.492;8.474;2024-01-15T12:23:15;99263.38;;;2.14;79.69
6144;BME280;3103;49.492;8.474;2024-01-15T12:25:43;99264.47;;;2.00;78.48
6144;BME280;3103;49.492;8.474;2024-01-15T12:28:10;99260.19;;;1.99;78.40
6144;BME280;3103;49.492;8.474;2024-01-15T12:30:38;99256.00;;;2.16;77.93
6144;BME280;3103;49.492;8.474;2024-01-15T12:33:07;99253.56;;;2.15;78.33
6144;BME280;3103;49.492;8.474;2024-01-15T12:35:36;99247.53;;;2.32;78.43
6144;BME280;3103;49.492;8.474;2024-01-15T12:38:03;99244.50;;;2.29;77.51
6144;BME280;3103;49.492;8.474;2024-01-15T12:40:31;99243.41;;;2.12;77.88
6144;BME280;3103;49.492;8.474;2024-01-15T12:43:00;99246.16;;;1.92;79.01
6144;BME280;3103;49.492;8.474;2024-01-15T12:45:27;99244.63;;;2.09;78.79
6144;BME280;3103;49.492;8.474;2024-01-15T12:47:55;99237.63;;;2.21;77.64
6144;BME280;3103;49.492;8.474;2024-01-15T12:50:24;99250.28;;;2.19;78.27
6144;BME280;3103;49.492;8.474;2024-01-15T12:52:52;99258.06;;;2.14;78.16
6144;BME280;3103;49.492;8.474;2024-01-15T12:55:19;99267.94;;;2.00;77.65
6144;BME280;3103;49.492;8.474;2024-01-15T12:57:46;99275.59;;;2.15;77.66
6144;BME280;3103;49.492;8.474;2024-01-15T13:00:14;99273.38;;;2.05;77.52
6144;BME280;3103;49.492;8.474;2024-01-15T13:02:42;99274.69;;;2.28;76.62
6144;BME280;3103;49.492;8.474;2024-01-15T13:05:11;99274.00;;;2.07;77.12
6144;BME280;3103;49.492;8.474;2024-01-15T13:07:41;99274.69;;;2.28;76.66
6144;BME280;3103;49.492;8.474;2024-01-15T13:10:11;99276.91;;;2.31;75.93
6144;BME280;3103;49.492;8.474;2024-01-15T13:12:41;99258.66;;;2.16;75.72
6144;BME280;3103;49.492;8.474;2024-01-15T13:15:09;99268.38;;;2.29;75.43
6144;BME280;3103;49.492;8.474;2024-01-15T13:17:44;99266.00;;;2.46;75.24
6144;BME280;3103;49.492;8.474;2024-01-15T13:20:13;99265.03;;;2.40;75.08
6144;BME280;3103;49.492;8.474;2024-01-15T13:22:40;99267.69;;;2.40;75.41
6144;BME280;3103;49.492;8.474;2024-01-15T13:25:11;99269.38;;;2.59;74.68
6144;BME280;3103;49.492;8.474;2024-01-15T13:27:38;99274.41;;;2.67;74.26
6144;BME280;3103;49.492;8.474;2024-01-15T13:30:07;99276.84;;;2.69;73.67
6144;BME280;3103;49.492;8.474;2024-01-15T13:32:35;99274.25;;;2.62;73.87
6144;BME280;3103;49.492;8.474;2024-01-15T13:35:03;99275.34;;;2.55;73.91
6144;BME280;3103;49.492;8.474;2024-01-15T13:37:32;99284.41;;;2.41;74.58